Olib — 9AA6266 — position and weather

sailwx.info

Track history (hours):
 
Tides and Currents Weather Stations Pressure Air Temp Water Temp Dewpoint Dewpoint Depression Visibility Wind Speed Wind Dir Waves Ship Positions

Olib

Last reported at 2014-Aug-01 05:31 UTC. Time now 2014-Aug-01 11:54 UTC.
Position N 35°51' W 000°15'.

Length 247 m; draft 8.3 m.

Type: Ship. MMSI: 238252000.

Date/timePositionNaut miles runAvg speedWind from/ knotsBaromVisibWave heightAir tempDewpointWater temp
2014-Aug-01 05:31N 35°51' W 000°15'13 1.6
2014-Jul-31 21:25N 36°03' W 000°09'1315.0
2014-Jul-31 20:33N 36°12' E 000°02'1514.7
2014-Jul-31 19:34N 36°23' E 000°15'1414.3
2014-Jul-31 18:33N 36°30' E 000°30'1414.1
2014-Jul-31 17:33N 36°37' E 000°45'1414.1
2014-Jul-31 16:33N 36°44' E 001°01'1414.2
2014-Jul-31 15:33N 36°48' E 001°18'1414.2
2014-Jul-31 14:33N 36°53' E 001°35'1414.4
2014-Jul-31 13:33N 36°58' E 001°52'1514.8
2014-Jul-31 12:33N 37°02' E 002°09'1514.8
2014-Jul-31 11:33N 37°07' E 002°26'1414.5
2014-Jul-31 10:33N 37°12' E 002°44'1615.5
2014-Jul-31 09:31N 37°17' E 003°03'1413.3
2014-Jul-31 08:28N 37°21' E 003°20'1314.3
2014-Jul-31 07:31N 37°25' E 003°36'40713.5
2014-Jul-30 01:17N 37°03' E 012°07'2413.3
2014-Jul-29 23:28N 36°56' E 012°35'1313.8
2014-Jul-29 22:34N 36°53' E 012°51'1514.8
2014-Jul-29 21:33N 36°48' E 013°08'1414.5
2014-Jul-29 20:34N 36°44' E 013°25'1514.7
2014-Jul-29 19:34N 36°40' E 013°43'1515.2
2014-Jul-29 18:33N 36°35' E 014°01'1515.2
2014-Jul-29 17:34N 36°30' E 014°19'1515.0
2014-Jul-29 16:34N 36°26' E 014°37'1414.3
2014-Jul-29 15:34N 36°28' E 014°55'  
Track history (hours):
 
Tides and Currents Weather Stations Pressure Air Temp Water Temp Dewpoint Dewpoint Depression Visibility Wind Speed Wind Dir Waves Ship Positions

Olib

Last reported at 2014-Aug-01 05:31 UTC. Time now 2014-Aug-01 11:54 UTC.
Position N 35°51' W 000°15'.

Length 247 m; draft 8.3 m.

Type: Ship. MMSI: 238252000.

Date/timePositionNaut miles runAvg speedWind from/ knotsBaromVisibWave heightAir tempDewpointWater temp
2014-Aug-01 05:31N 35°51' W 000°15'13 1.6
2014-Jul-31 21:25N 36°03' W 000°09'1315.0
2014-Jul-31 20:33N 36°12' E 000°02'1514.7
2014-Jul-31 19:34N 36°23' E 000°15'1414.3
2014-Jul-31 18:33N 36°30' E 000°30'1414.1
2014-Jul-31 17:33N 36°37' E 000°45'1414.1
2014-Jul-31 16:33N 36°44' E 001°01'1414.2
2014-Jul-31 15:33N 36°48' E 001°18'1414.2
2014-Jul-31 14:33N 36°53' E 001°35'1414.4
2014-Jul-31 13:33N 36°58' E 001°52'1514.8
2014-Jul-31 12:33N 37°02' E 002°09'1514.8
2014-Jul-31 11:33N 37°07' E 002°26'1414.5
2014-Jul-31 10:33N 37°12' E 002°44'1615.5
2014-Jul-31 09:31N 37°17' E 003°03'1413.3
2014-Jul-31 08:28N 37°21' E 003°20'1314.3
2014-Jul-31 07:31N 37°25' E 003°36'40713.5
2014-Jul-30 01:17N 37°03' E 012°07'2413.3
2014-Jul-29 23:28N 36°56' E 012°35'1313.8
2014-Jul-29 22:34N 36°53' E 012°51'1514.8
2014-Jul-29 21:33N 36°48' E 013°08'1414.5
2014-Jul-29 20:34N 36°44' E 013°25'1514.7
2014-Jul-29 19:34N 36°40' E 013°43'1515.2
2014-Jul-29 18:33N 36°35' E 014°01'1515.2
2014-Jul-29 17:34N 36°30' E 014°19'1515.0
2014-Jul-29 16:34N 36°26' E 014°37'1414.3
2014-Jul-29 15:34N 36°28' E 014°55'  

Dump ship's entire track history